Time;durP1;ratioP1;P1;durP2;ratioP2;P2;SDS_P1;SDS_P2;PMS_P1;PMS_P2;Temp;Humidity;BMP_temperature;BMP_pressure;BME280_temperature;BME280_humidity;BME280_pressure;Samples;Min_cycle;Max_cycle;Signal;HPM_P1;HPM_P2
2024/02/03 00:00:49;;;;;;;27.63;11.10;;;9.00;99.90;;;;;;5052577;28;20075;-51
2024/02/03 00:03:15;;;;;;;27.63;12.93;;;9.00;99.90;;;;;;5052478;28;20049;-50
2024/02/03 00:05:40;;;;;;;23.70;11.50;;;9.00;99.90;;;;;;5052265;28;20025;-51
2024/02/03 00:08:06;;;;;;;27.80;11.80;;;9.00;99.90;;;;;;5050780;28;20518;-50
2024/02/03 00:10:33;;;;;;;26.03;11.90;;;9.00;99.90;;;;;;5052359;28;20054;-49
2024/02/03 00:12:58;;;;;;;27.10;11.63;;;9.00;99.90;;;;;;5052351;28;20130;-50
2024/02/03 00:15:27;;;;;;;25.57;12.03;;;9.00;99.90;;;;;;5051454;28;20052;-52
2024/02/03 00:17:52;;;;;;;21.42;10.88;;;9.00;99.90;;;;;;5051882;28;20036;-50
2024/02/03 00:20:19;;;;;;;22.07;10.90;;;9.00;99.90;;;;;;5052048;28;20040;-52
2024/02/03 00:22:49;;;;;;;22.60;10.97;;;8.90;99.90;;;;;;5050901;28;20509;-53
2024/02/03 00:25:15;;;;;;;24.33;11.60;;;9.00;99.90;;;;;;5050876;28;20465;-51
2024/02/03 00:27:41;;;;;;;22.70;10.47;;;9.00;99.90;;;;;;5051801;28;20481;-52
2024/02/03 00:30:08;;;;;;;22.10;10.30;;;9.00;99.90;;;;;;5051981;28;20025;-55
2024/02/03 00:32:34;;;;;;;19.90;10.00;;;9.00;99.90;;;;;;5051843;28;20098;-49
2024/02/03 00:34:59;;;;;;;24.63;11.27;;;9.00;99.90;;;;;;5051742;28;20041;-54
2024/02/03 00:37:25;;;;;;;21.00;10.93;;;9.00;99.90;;;;;;5051814;28;20028;-51
2024/02/03 00:39:51;;;;;;;24.83;12.17;;;9.00;99.90;;;;;;5051859;28;20385;-52
2024/02/03 00:42:17;;;;;;;18.17;9.10;;;8.90;99.90;;;;;;5052359;28;20436;-52
2024/02/03 00:44:43;;;;;;;19.20;9.50;;;9.00;99.90;;;;;;5058092;28;20033;-51
2024/02/03 00:47:09;;;;;;;19.53;8.67;;;9.00;99.90;;;;;;5058263;28;20083;-53
2024/02/03 00:49:34;;;;;;;20.40;9.63;;;9.00;99.90;;;;;;5058428;28;20170;-54
2024/02/03 00:52:00;;;;;;;19.33;8.73;;;9.00;99.90;;;;;;5058379;28;20104;-53
2024/02/03 00:54:26;;;;;;;18.17;8.40;;;9.00;99.90;;;;;;5058396;28;20535;-54
2024/02/03 00:56:51;;;;;;;17.23;7.87;;;9.00;99.90;;;;;;5058259;28;20024;-53
2024/02/03 00:59:17;;;;;;;16.40;7.47;;;9.00;99.90;;;;;;5058335;28;20402;-53
2024/02/03 01:01:43;;;;;;;22.57;10.63;;;9.00;99.90;;;;;;5058478;28;20033;-53
2024/02/03 01:04:09;;;;;;;23.53;10.70;;;9.00;99.90;;;;;;5058146;28;20120;-53
2024/02/03 01:06:34;;;;;;;18.60;9.17;;;8.90;99.90;;;;;;5058043;28;20246;-52
2024/02/03 01:09:00;;;;;;;17.67;8.53;;;9.00;99.90;;;;;;5058152;28;20033;-51
2024/02/03 01:11:27;;;;;;;16.13;8.17;;;9.00;99.90;;;;;;5058235;28;20025;-54
2024/02/03 01:13:53;;;;;;;17.87;8.47;;;9.00;99.90;;;;;;5058281;28;20033;-50
2024/02/03 01:16:19;;;;;;;17.90;8.57;;;9.10;99.90;;;;;;5057962;28;20048;-54
2024/02/03 01:18:45;;;;;;;18.23;8.87;;;9.00;99.90;;;;;;5058102;28;20025;-54
2024/02/03 01:21:22;;;;;;;16.83;7.73;;;9.10;99.90;;;;;;5057989;28;20028;-54
2024/02/03 01:23:48;;;;;;;15.80;8.10;;;9.10;99.90;;;;;;5058288;28;20029;-54
2024/02/03 01:26:15;;;;;;;16.23;8.83;;;9.10;99.90;;;;;;5058012;28;20090;-53
2024/02/03 01:28:41;;;;;;;17.33;8.90;;;9.10;99.90;;;;;;5058004;28;20043;-50
2024/02/03 01:31:08;;;;;;;15.40;8.07;;;9.00;99.90;;;;;;5057948;28;20029;-53
2024/02/03 01:33:34;;;;;;;17.70;8.70;;;9.10;99.90;;;;;;5058538;28;20036;-51
2024/02/03 01:35:59;;;;;;;16.50;8.50;;;9.10;99.90;;;;;;5058692;28;20098;-54
2024/02/03 01:38:25;;;;;;;13.23;7.00;;;9.10;99.90;;;;;;5057939;28;20112;-54
2024/02/03 01:40:51;;;;;;;15.67;7.90;;;9.10;99.90;;;;;;5058015;28;20025;-54
2024/02/03 01:43:16;;;;;;;15.97;7.67;;;9.10;99.90;;;;;;5057938;28;20032;-54
2024/02/03 01:45:42;;;;;;;15.53;8.03;;;9.10;99.90;;;;;;5056597;28;20135;-54
2024/02/03 01:48:09;;;;;;;16.00;8.23;;;9.10;99.90;;;;;;5057908;28;20033;-51
2024/02/03 01:50:35;;;;;;;14.47;7.67;;;9.10;99.90;;;;;;5057815;28;20040;-53
2024/02/03 01:53:02;;;;;;;15.13;7.73;;;9.20;99.90;;;;;;5057866;28;20037;-53
2024/02/03 01:55:29;;;;;;;14.03;7.50;;;9.20;99.90;;;;;;5055366;28;20108;-52
2024/02/03 01:58:01;;;;;;;13.63;7.03;;;9.20;99.90;;;;;;5054450;28;20024;-53
2024/02/03 02:00:27;;;;;;;15.20;7.80;;;9.20;99.90;;;;;;5054668;28;20029;-52
2024/02/03 02:02:53;;;;;;;15.00;7.23;;;9.20;99.90;;;;;;5054712;28;20073;-53
2024/02/03 02:05:18;;;;;;;15.30;6.90;;;9.20;99.90;;;;;;5053379;28;20086;-50
2024/02/03 02:07:44;;;;;;;13.00;6.20;;;9.20;99.90;;;;;;5054426;28;20505;-51
2024/02/03 02:10:11;;;;;;;12.20;6.40;;;9.30;99.90;;;;;;5053691;28;20053;-51
2024/02/03 02:12:37;;;;;;;14.23;6.87;;;9.40;99.90;;;;;;5054345;28;20024;-54
2024/02/03 02:15:04;;;;;;;13.43;6.43;;;9.30;99.90;;;;;;5054370;28;20029;-54
2024/02/03 02:17:30;;;;;;;14.67;7.03;;;9.30;99.90;;;;;;5054359;28;20040;-53
2024/02/03 02:20:08;;;;;;;15.87;7.50;;;9.30;99.90;;;;;;5052889;28;20428;-54
2024/02/03 02:22:36;;;;;;;14.20;6.80;;;9.30;99.90;;;;;;5054193;28;20029;-57
2024/02/03 02:25:05;;;;;;;12.57;6.63;;;9.30;99.90;;;;;;5052951;28;20033;-53
2024/02/03 02:27:31;;;;;;;;;;;9.40;99.90;;;;;;5054468;28;20437;-54
2024/02/03 02:29:57;;;;;;;13.43;6.40;;;9.40;99.90;;;;;;5054222;28;19970;-53
2024/02/03 02:32:22;;;;;;;15.57;7.60;;;9.40;99.90;;;;;;5054064;28;20051;-52
2024/02/03 02:34:48;;;;;;;16.60;7.83;;;9.40;99.90;;;;;;5053738;28;20405;-54
2024/02/03 02:37:14;;;;;;;14.43;7.00;;;9.40;99.90;;;;;;5053728;28;20025;-53
2024/02/03 02:39:40;;;;;;;14.03;7.63;;;9.30;99.90;;;;;;5053766;28;20040;-55
2024/02/03 02:42:06;;;;;;;14.77;7.73;;;9.40;99.90;;;;;;5054039;28;20033;-55
2024/02/03 02:44:32;;;;;;;17.17;8.17;;;9.30;99.90;;;;;;5053760;28;20033;-53
2024/02/03 02:46:58;;;;;;;14.30;7.33;;;9.40;99.90;;;;;;5052508;28;20060;-55
2024/02/03 02:49:23;;;;;;;15.67;7.63;;;9.40;99.90;;;;;;5053743;28;20128;-54
2024/02/03 02:51:49;;;;;;;15.80;7.97;;;9.40;99.90;;;;;;5052612;28;20025;-54
2024/02/03 02:54:15;;;;;;;15.67;7.93;;;9.40;99.90;;;;;;5053450;28;20086;-54
2024/02/03 02:56:40;;;;;;;17.53;9.10;;;9.40;99.90;;;;;;5053536;28;20379;-54
2024/02/03 02:59:06;;;;;;;14.10;7.00;;;9.40;99.90;;;;;;5053481;28;20112;-55
2024/02/03 03:01:32;;;;;;;15.53;8.60;;;9.40;99.90;;;;;;5053703;28;20071;-55
2024/02/03 03:03:57;;;;;;;16.93;7.63;;;9.40;99.90;;;;;;5053486;28;20456;-53
2024/02/03 03:06:23;;;;;;;14.67;8.10;;;9.40;99.90;;;;;;5052785;28;20087;-53
2024/02/03 03:08:48;;;;;;;15.67;8.37;;;9.40;99.90;;;;;;5053156;28;20116;-50
2024/02/03 03:11:14;;;;;;;15.77;8.37;;;9.40;99.90;;;;;;5053095;28;20124;-53
2024/02/03 03:13:40;;;;;;;15.50;7.30;;;9.50;99.90;;;;;;5053117;28;20059;-54
2024/02/03 03:16:08;;;;;;;16.03;8.37;;;9.40;99.90;;;;;;5053099;28;20508;-51
2024/02/03 03:18:34;;;;;;;16.10;8.30;;;9.40;99.90;;;;;;5053018;28;20392;-54
2024/02/03 03:21:00;;;;;;;15.17;7.90;;;9.40;99.90;;;;;;5053052;28;20033;-51
2024/02/03 03:23:26;;;;;;;14.53;7.33;;;9.40;99.90;;;;;;5053011;28;20025;-53
2024/02/03 03:25:56;;;;;;;14.20;7.27;;;9.50;99.90;;;;;;5053076;28;20033;-52
2024/02/03 03:28:22;;;;;;;15.53;7.97;;;9.40;99.90;;;;;;5053036;28;20361;-53
2024/02/03 03:30:48;;;;;;;14.03;7.23;;;9.40;99.90;;;;;;5051695;28;20041;-54
2024/02/03 03:33:13;;;;;;;13.00;7.07;;;9.40;99.90;;;;;;5052803;28;20068;-52
2024/02/03 03:35:39;;;;;;;15.57;7.83;;;9.40;99.90;;;;;;5052777;28;20040;-53
2024/02/03 03:38:06;;;;;;;14.80;7.30;;;9.40;99.90;;;;;;5052576;28;20071;-54
2024/02/03 03:40:35;;;;;;;13.63;6.60;;;9.50;99.90;;;;;;5052784;28;20036;-53
2024/02/03 03:43:02;;;;;;;13.88;7.03;;;9.40;99.90;;;;;;5052611;28;20020;-54
2024/02/03 03:45:27;;;;;;;11.97;6.50;;;9.40;99.90;;;;;;5052612;28;20111;-54
2024/02/03 03:47:53;;;;;;;13.50;7.07;;;9.40;99.90;;;;;;5052339;28;20619;-53
2024/02/03 03:50:19;;;;;;;12.20;6.63;;;9.40;99.90;;;;;;5052650;28;20075;-54
2024/02/03 03:52:44;;;;;;;12.87;6.83;;;9.40;99.90;;;;;;5052614;28;20036;-53
2024/02/03 03:55:10;;;;;;;13.17;6.50;;;9.50;99.90;;;;;;5052631;28;20033;-50
2024/02/03 03:57:36;;;;;;;11.57;6.27;;;9.40;99.90;;;;;;5052402;28;20025;-53
2024/02/03 04:00:05;;;;;;;14.43;7.00;;;9.50;99.90;;;;;;5052515;28;20590;-53
2024/02/03 04:02:38;;;;;;;14.47;7.07;;;9.40;99.90;;;;;;5052473;28;20036;-54
2024/02/03 04:05:04;;;;;;;11.97;6.63;;;9.50;99.90;;;;;;5052232;28;20037;-53
2024/02/03 04:07:30;;;;;;;14.27;6.70;;;9.50;99.90;;;;;;5052291;28;20069;-50
2024/02/03 04:09:56;;;;;;;13.00;7.43;;;9.50;99.90;;;;;;5052109;28;20055;-54
2024/02/03 04:12:22;;;;;;;14.90;7.13;;;9.50;99.90;;;;;;5052312;28;20067;-55
2024/02/03 04:14:47;;;;;;;15.70;7.73;;;9.60;99.90;;;;;;5052154;28;20120;-54
2024/02/03 04:17:14;;;;;;;14.13;7.10;;;9.60;99.90;;;;;;5051629;28;20029;-53
2024/02/03 04:19:39;;;;;;;12.10;6.87;;;9.50;99.90;;;;;;5051575;28;20025;-53
2024/02/03 04:22:05;;;;;;;12.97;7.00;;;9.50;99.90;;;;;;5052211;28;20025;-54
2024/02/03 04:24:31;;;;;;;16.87;7.87;;;9.50;99.90;;;;;;5051847;28;20036;-55
2024/02/03 04:26:57;;;;;;;15.10;7.87;;;9.50;99.90;;;;;;5051886;28;20033;-55
2024/02/03 04:29:22;;;;;;;12.90;6.73;;;9.40;99.90;;;;;;5052034;28;20100;-54
2024/02/03 04:31:48;;;;;;;14.27;8.00;;;9.50;99.90;;;;;;5051932;28;20470;-55
2024/02/03 04:34:17;;;;;;;14.07;7.17;;;9.40;99.90;;;;;;5052049;28;20029;-55
2024/02/03 04:36:43;;;;;;;15.13;7.80;;;9.40;99.90;;;;;;5051829;28;20036;-49
2024/02/03 04:39:08;;;;;;;14.87;8.33;;;9.40;99.90;;;;;;5051805;28;20029;-50
2024/02/03 04:41:34;;;;;;;14.27;6.80;;;9.40;99.90;;;;;;5051896;28;20025;-53
2024/02/03 04:43:59;;;;;;;14.37;7.27;;;9.40;99.90;;;;;;5051862;28;20043;-52
2024/02/03 04:46:25;;;;;;;15.10;7.33;;;9.40;99.90;;;;;;5051738;28;20386;-49
2024/02/03 04:48:52;;;;;;;13.50;7.20;;;9.40;99.90;;;;;;5052225;28;20366;-52
2024/02/03 04:51:18;;;;;;;15.00;7.17;;;9.30;99.90;;;;;;5052018;28;20033;-50
2024/02/03 04:53:43;;;;;;;13.43;6.80;;;9.30;99.90;;;;;;5051708;28;20366;-53
2024/02/03 04:56:09;;;;;;;14.20;6.47;;;9.30;99.90;;;;;;5051733;28;20037;-50
2024/02/03 04:58:35;;;;;;;12.53;6.23;;;9.20;99.90;;;;;;5051645;28;20448;-50
2024/02/03 05:01:04;;;;;;;15.50;6.93;;;9.30;99.90;;;;;;5051757;28;20033;-54
2024/02/03 05:03:31;;;;;;;14.05;7.00;;;9.30;99.90;;;;;;5051845;28;20043;-53
2024/02/03 05:06:04;;;;;;;14.73;7.57;;;9.30;99.90;;;;;;5051980;28;20047;-52
2024/02/03 05:08:31;;;;;;;14.70;7.13;;;9.30;99.90;;;;;;5051847;28;20020;-50
2024/02/03 05:10:56;;;;;;;13.40;7.23;;;9.40;99.90;;;;;;5051981;28;20429;-54
2024/02/03 05:13:22;;;;;;;12.70;6.93;;;9.40;99.90;;;;;;5052308;28;20037;-51
2024/02/03 05:15:47;;;;;;;16.33;7.03;;;9.40;99.90;;;;;;5052139;28;20025;-50
2024/02/03 05:18:13;;;;;;;15.20;7.43;;;9.40;99.90;;;;;;5051977;28;20082;-50
2024/02/03 05:20:38;;;;;;;14.37;6.90;;;9.40;99.90;;;;;;5052733;28;20029;-53
2024/02/03 05:23:04;;;;;;;13.23;7.37;;;9.40;99.90;;;;;;5052965;28;20107;-53
2024/02/03 05:25:30;;;;;;;17.83;7.53;;;9.40;99.90;;;;;;5052678;28;20032;-50
2024/02/03 05:27:55;;;;;;;14.43;6.77;;;9.50;99.90;;;;;;5052636;28;20608;-51
2024/02/03 05:30:21;;;;;;;14.90;7.03;;;9.50;99.90;;;;;;5055429;28;20036;-50
2024/02/03 05:32:46;;;;;;;15.67;7.20;;;9.60;99.90;;;;;;5056332;28;20029;-50
2024/02/03 05:35:12;;;;;;;14.70;7.83;;;9.50;99.90;;;;;;5055912;28;20060;-50
2024/02/03 05:37:37;;;;;;;17.17;7.67;;;9.50;99.90;;;;;;5055265;28;20024;-52
2024/02/03 05:40:03;;;;;;;18.07;8.33;;;9.50;99.90;;;;;;5055081;28;20017;-54
2024/02/03 05:42:30;;;;;;;14.37;7.37;;;9.50;99.90;;;;;;5055099;28;20466;-52
2024/02/03 05:44:57;;;;;;;15.57;7.37;;;9.60;99.90;;;;;;5054980;28;20528;-53
2024/02/03 05:47:23;;;;;;;14.57;7.03;;;9.50;99.90;;;;;;5054824;28;20036;-54
2024/02/03 05:49:49;;;;;;;15.50;7.77;;;9.50;99.90;;;;;;5054875;28;20427;-53
2024/02/03 05:52:14;;;;;;;14.90;6.90;;;9.50;99.90;;;;;;5054826;28;20122;-53
2024/02/03 05:54:40;;;;;;;14.87;7.27;;;9.50;99.90;;;;;;5054660;28;20036;-54
2024/02/03 05:57:11;;;;;;;15.67;7.47;;;9.50;99.90;;;;;;5054500;28;20035;-54
2024/02/03 05:59:36;;;;;;;13.83;7.07;;;9.40;99.90;;;;;;5055057;28;20035;-55
2024/02/03 06:02:02;;;;;;;14.87;6.57;;;9.40;99.90;;;;;;5054455;28;20032;-53
2024/02/03 06:04:27;;;;;;;13.47;7.37;;;9.40;99.90;;;;;;5054464;28;20021;-53
2024/02/03 06:06:53;;;;;;;13.57;6.70;;;9.40;99.90;;;;;;5054349;28;20036;-54
2024/02/03 06:09:19;;;;;;;12.37;6.20;;;9.40;99.90;;;;;;5054312;28;20466;-54
2024/02/03 06:11:44;;;;;;;14.60;6.77;;;9.40;99.90;;;;;;5054730;28;20029;-54
2024/02/03 06:14:10;;;;;;;14.50;7.03;;;9.40;99.90;;;;;;5054326;28;20056;-53
2024/02/03 06:16:35;;;;;;;12.23;6.40;;;9.40;99.90;;;;;;5054109;28;20040;-54
2024/02/03 06:19:01;;;;;;;16.83;7.67;;;9.30;99.90;;;;;;5052879;28;20029;-54
2024/02/03 06:21:27;;;;;;;15.43;7.40;;;9.30;99.90;;;;;;5054283;28;20024;-53
2024/02/03 06:23:52;;;;;;;13.90;7.60;;;9.30;99.90;;;;;;5054188;28;20022;-51
2024/02/03 06:26:18;;;;;;;14.30;7.10;;;9.30;99.90;;;;;;5054324;28;20039;-54
2024/02/03 06:28:44;;;;;;;15.70;7.00;;;9.40;99.90;;;;;;5054010;28;20561;-54
2024/02/03 06:31:09;;;;;;;18.00;7.83;;;9.30;99.90;;;;;;5053848;28;20028;-53
2024/02/03 06:33:35;;;;;;;14.43;6.90;;;9.40;99.90;;;;;;5053976;28;20033;-54
2024/02/03 06:36:00;;;;;;;14.60;6.90;;;9.40;99.90;;;;;;5053954;28;20029;-54
2024/02/03 06:38:28;;;;;;;14.87;7.60;;;9.40;99.90;;;;;;5053771;28;20025;-53
2024/02/03 06:40:54;;;;;;;14.77;7.33;;;9.40;99.90;;;;;;5052825;28;20040;-54
2024/02/03 06:43:20;;;;;;;15.77;7.37;;;9.50;99.90;;;;;;5052397;28;20033;-54
2024/02/03 06:45:45;;;;;;;13.67;7.27;;;9.40;99.90;;;;;;5053900;28;20085;-54
2024/02/03 06:48:11;;;;;;;15.10;6.40;;;9.40;99.90;;;;;;5053671;28;20422;-53
2024/02/03 06:50:37;;;;;;;14.17;7.03;;;9.40;99.90;;;;;;5053973;28;20032;-53
2024/02/03 06:53:03;;;;;;;16.53;8.00;;;9.40;99.90;;;;;;5053629;28;20475;-54
2024/02/03 06:55:28;;;;;;;16.53;7.47;;;9.50;99.90;;;;;;5053595;28;20037;-52
2024/02/03 06:57:54;;;;;;;17.73;8.30;;;9.50;99.90;;;;;;5053298;28;20242;-53
2024/02/03 07:00:20;;;;;;;16.50;7.30;;;9.50;99.90;;;;;;5053476;28;20032;-53
2024/02/03 07:02:45;;;;;;;16.33;7.70;;;9.60;99.90;;;;;;5053752;28;20021;-52
2024/02/03 07:05:11;;;;;;;13.90;7.70;;;9.60;99.90;;;;;;5053354;28;20025;-53
2024/02/03 07:07:36;;;;;;;15.27;7.27;;;9.50;99.90;;;;;;5053232;28;20075;-50
2024/02/03 07:10:02;;;;;;;14.70;7.40;;;9.60;99.90;;;;;;5053586;28;20116;-52
2024/02/03 07:12:28;;;;;;;16.07;8.60;;;9.60;99.90;;;;;;5053315;28;20040;-52
2024/02/03 07:14:54;;;;;;;17.20;7.60;;;9.60;99.90;;;;;;5053046;28;20054;-54
2024/02/03 07:17:19;;;;;;;16.77;8.63;;;9.60;99.90;;;;;;5053088;28;20025;-52
2024/02/03 07:19:45;;;;;;;15.23;7.33;;;9.60;99.90;;;;;;5053041;28;20052;-52
2024/02/03 07:22:11;;;;;;;15.67;7.90;;;9.60;99.90;;;;;;5053332;28;20500;-53
2024/02/03 07:24:39;;;;;;;13.97;7.70;;;9.60;99.90;;;;;;5053011;28;20029;-52
2024/02/03 07:27:05;;;;;;;17.65;8.43;;;9.60;99.90;;;;;;5053362;28;20025;-49
2024/02/03 07:29:31;;;;;;;19.03;8.30;;;9.60;99.90;;;;;;5053421;28;20021;-51
2024/02/03 07:31:59;;;;;;;15.40;8.10;;;9.50;99.90;;;;;;5056223;28;20045;-54
2024/02/03 07:34:25;;;;;;;17.73;8.47;;;9.60;99.90;;;;;;5051813;28;20064;-53
2024/02/03 07:36:51;;;;;;;18.67;8.33;;;9.60;99.90;;;;;;5052846;28;20422;-53
2024/02/03 07:39:16;;;;;;;15.90;8.00;;;9.60;99.90;;;;;;5052845;28;20116;-54
2024/02/03 07:41:42;;;;;;;14.70;7.40;;;9.60;99.90;;;;;;5052835;28;20032;-54
2024/02/03 07:44:07;;;;;;;17.40;8.27;;;9.60;99.90;;;;;;5052602;28;20024;-53
2024/02/03 07:46:33;;;;;;;17.70;8.57;;;9.60;99.90;;;;;;5052632;28;20042;-55
2024/02/03 07:48:59;;;;;;;14.47;7.53;;;9.60;99.90;;;;;;5052581;28;20056;-53
2024/02/03 07:51:24;;;;;;;19.13;8.20;;;9.60;99.90;;;;;;5052672;28;20028;-51
2024/02/03 07:53:50;;;;;;;17.83;7.63;;;9.60;99.90;;;;;;5052438;28;20024;-52
2024/02/03 07:56:15;;;;;;;16.33;8.00;;;9.60;99.90;;;;;;5052402;28;20028;-53
2024/02/03 07:58:41;;;;;;;15.50;7.70;;;9.60;99.90;;;;;;5052586;28;20053;-52
2024/02/03 08:01:06;;;;;;;16.40;6.90;;;9.60;99.90;;;;;;5051199;28;20029;-52
2024/02/03 08:03:32;;;;;;;14.63;7.47;;;9.60;99.90;;;;;;5052468;28;20112;-52
2024/02/03 08:06:00;;;;;;;14.63;7.33;;;9.60;99.90;;;;;;5051127;28;20036;-52
2024/02/03 08:08:27;;;;;;;16.63;7.97;;;9.70;99.90;;;;;;5052590;28;20440;-50
2024/02/03 08:10:52;;;;;;;16.50;7.47;;;9.70;99.90;;;;;;5052171;28;20108;-54
2024/02/03 08:13:18;;;;;;;16.03;7.87;;;9.70;99.90;;;;;;5052158;28;20191;-54
2024/02/03 08:15:44;;;;;;;15.83;7.13;;;9.70;99.90;;;;;;5052115;28;20040;-52
2024/02/03 08:18:09;;;;;;;17.03;7.83;;;9.70;99.90;;;;;;5052049;28;20547;-51
2024/02/03 08:20:35;;;;;;;16.80;8.00;;;9.60;99.90;;;;;;5052223;28;20117;-53
2024/02/03 08:23:00;;;;;;;14.17;7.50;;;9.70;99.90;;;;;;5052009;28;20029;-53
2024/02/03 08:25:26;;;;;;;16.27;7.63;;;9.70;99.90;;;;;;5051864;28;20083;-51
2024/02/03 08:27:52;;;;;;;16.17;8.67;;;9.70;99.90;;;;;;5051800;28;20094;-54
2024/02/03 08:30:17;;;;;;;16.77;8.27;;;9.70;99.90;;;;;;5052159;28;20032;-54
2024/02/03 08:32:43;;;;;;;19.27;8.07;;;9.70;99.90;;;;;;5050632;28;20044;-52
2024/02/03 08:35:09;;;;;;;15.30;7.10;;;9.70;99.90;;;;;;5051850;28;20095;-54
2024/02/03 08:37:34;;;;;;;17.13;7.60;;;9.70;99.90;;;;;;5051861;28;20021;-53
2024/02/03 08:40:00;;;;;;;15.90;7.83;;;9.70;99.90;;;;;;5052462;28;20041;-53
2024/02/03 08:42:25;;;;;;;15.93;7.43;;;9.70;99.90;;;;;;5052288;28;20044;-51
2024/02/03 08:44:51;;;;;;;15.10;7.07;;;9.70;99.90;;;;;;5051870;28;20421;-53
2024/02/03 08:47:16;;;;;;;15.53;6.83;;;9.60;99.90;;;;;;5051723;28;20088;-53
2024/02/03 08:49:53;;;;;;;16.13;7.20;;;9.60;99.90;;;;;;5051745;28;20021;-53
2024/02/03 08:52:19;;;;;;;15.67;7.37;;;9.70;99.90;;;;;;5051946;28;20076;-51
2024/02/03 08:54:45;;;;;;;15.83;6.77;;;9.70;99.90;;;;;;5051562;28;20036;-53
2024/02/03 08:57:11;;;;;;;14.17;6.27;;;9.70;99.90;;;;;;5051881;28;20442;-51
2024/02/03 08:59:37;;;;;;;12.80;6.10;;;9.70;99.90;;;;;;5051799;28;20067;-53
2024/02/03 09:02:02;;;;;;;14.50;6.77;;;9.70;99.90;;;;;;5051651;28;20363;-53
2024/02/03 09:04:28;;;;;;;14.70;6.93;;;9.70;99.90;;;;;;5053038;28;20482;-50
2024/02/03 09:06:54;;;;;;;14.87;7.37;;;9.70;99.90;;;;;;5055583;28;20048;-53
2024/02/03 09:09:19;;;;;;;12.73;6.30;;;9.70;99.90;;;;;;5055302;28;20039;-50
2024/02/03 09:11:45;;;;;;;13.20;7.20;;;9.80;99.90;;;;;;5055612;28;20048;-49
2024/02/03 09:14:10;;;;;;;14.30;7.03;;;9.90;99.90;;;;;;5054348;28;20047;-51
2024/02/03 09:16:36;;;;;;;13.77;6.57;;;9.90;99.90;;;;;;5055347;28;20377;-54
2024/02/03 09:19:02;;;;;;;14.73;7.40;;;9.90;99.90;;;;;;5055356;28;20033;-54
2024/02/03 09:21:27;;;;;;;14.93;6.47;;;9.90;99.90;;;;;;5055461;28;20029;-53
2024/02/03 09:23:53;;;;;;;13.33;6.73;;;9.90;99.90;;;;;;5055195;28;20021;-52
2024/02/03 09:26:18;;;;;;;14.33;6.23;;;9.90;99.90;;;;;;5055368;28;20037;-53
2024/02/03 09:28:44;;;;;;;14.70;6.63;;;9.90;99.90;;;;;;5055695;28;20367;-50
2024/02/03 09:31:17;;;;;;;13.50;6.50;;;9.90;99.90;;;;;;5055210;28;20516;-52
2024/02/03 09:33:43;;;;;;;16.93;7.07;;;9.90;99.90;;;;;;5055266;28;20037;-53
2024/02/03 09:36:09;;;;;;;14.47;7.33;;;9.90;99.90;;;;;;5055047;28;20477;-53
2024/02/03 09:38:34;;;;;;;17.50;7.83;;;10.00;99.90;;;;;;5054872;28;20155;-53
2024/02/03 09:41:00;;;;;;;15.00;7.40;;;10.00;99.90;;;;;;5055233;28;20029;-51
2024/02/03 09:43:26;;;;;;;13.67;7.27;;;10.10;99.90;;;;;;5054993;28;20033;-50
2024/02/03 09:45:52;;;;;;;12.27;6.40;;;10.10;99.90;;;;;;5055141;28;20096;-50
2024/02/03 09:48:18;;;;;;;14.07;6.73;;;10.10;99.90;;;;;;5054746;28;20025;-52
2024/02/03 09:50:43;;;;;;;15.00;6.90;;;10.10;99.90;;;;;;5054946;28;20080;-51
2024/02/03 09:53:10;;;;;;;14.60;7.30;;;10.10;99.90;;;;;;5055426;28;20033;-54
2024/02/03 09:55:36;;;;;;;15.50;6.97;;;10.10;99.90;;;;;;5056312;28;20425;-54
2024/02/03 09:58:03;;;;;;;14.17;7.30;;;10.10;99.90;;;;;;5054739;28;20033;-51
2024/02/03 10:00:28;;;;;;;13.67;6.80;;;10.10;99.90;;;;;;5054706;28;20036;-52
2024/02/03 10:02:54;;;;;;;14.83;6.80;;;10.00;99.90;;;;;;5054513;28;20367;-52
2024/02/03 10:05:30;;;;;;;13.53;6.80;;;10.10;99.90;;;;;;5053264;28;20078;-54
2024/02/03 10:08:05;;;;;;;14.67;7.00;;;10.10;99.90;;;;;;5054329;28;20041;-52
2024/02/03 10:10:33;;;;;;;14.17;7.33;;;10.10;99.90;;;;;;5054717;28;20108;-53
2024/02/03 10:13:07;;;;;;;15.53;6.43;;;10.20;99.90;;;;;;5054416;28;20040;-54
2024/02/03 10:15:37;;;;;;;13.93;6.80;;;10.20;99.90;;;;;;5053385;28;20029;-52
2024/02/03 10:18:03;;;;;;;13.60;6.55;;;10.20;99.90;;;;;;5054223;28;20437;-52
2024/02/03 10:20:29;;;;;;;12.70;6.87;;;10.20;99.90;;;;;;5054366;28;20029;-54
2024/02/03 10:22:55;;;;;;;17.30;7.23;;;10.20;99.90;;;;;;5054137;28;20055;-53
2024/02/03 10:25:24;;;;;;;16.00;8.07;;;10.20;99.90;;;;;;5054392;28;20041;-54
2024/02/03 10:27:59;;;;;;;15.38;7.43;;;10.30;99.90;;;;;;5054072;28;20036;-54
2024/02/03 10:30:25;;;;;;;16.33;8.10;;;10.30;99.90;;;;;;5052963;28;20560;-53
2024/02/03 10:32:51;;;;;;;19.50;8.50;;;10.30;99.90;;;;;;5053932;28;20121;-54
2024/02/03 10:35:16;;;;;;;12.83;6.83;;;10.30;99.90;;;;;;5053786;28;20128;-54
2024/02/03 10:37:42;;;;;;;13.53;6.40;;;10.40;99.90;;;;;;5053789;28;20036;-53
2024/02/03 10:40:08;;;;;;;13.30;6.47;;;10.40;99.90;;;;;;5053886;28;20024;-52
2024/02/03 10:42:37;;;;;;;14.63;7.33;;;10.40;99.90;;;;;;5054064;28;20051;-52
2024/02/03 10:45:07;;;;;;;12.05;6.40;;;10.40;99.90;;;;;;5053810;28;20032;-54
2024/02/03 10:47:38;;;;;;;13.20;6.40;;;10.50;99.90;;;;;;5053680;28;20028;-52
2024/02/03 10:50:09;;;;;;;15.27;6.23;;;10.50;99.90;;;;;;5052771;28;20079;-53
2024/02/03 10:52:36;;;;;;;11.37;6.63;;;10.50;99.90;;;;;;5053717;28;20064;-51
2024/02/03 10:55:04;;;;;;;14.67;7.47;;;10.50;99.90;;;;;;5053757;28;20036;-54
2024/02/03 10:57:30;;;;;;;14.60;6.70;;;10.50;99.90;;;;;;5053643;28;20031;-52
2024/02/03 11:00:07;;;;;;;15.07;6.37;;;10.50;99.90;;;;;;5053984;28;20444;-52
2024/02/03 11:02:32;;;;;;;13.90;5.80;;;10.50;99.90;;;;;;5053655;28;20061;-54
2024/02/03 11:04:58;;;;;;;14.73;6.37;;;10.50;99.90;;;;;;5053829;28;20095;-50
2024/02/03 11:07:28;;;;;;;13.07;5.77;;;10.50;99.90;;;;;;5053288;28;20024;-51
2024/02/03 11:09:56;;;;;;;10.47;5.40;;;10.50;99.90;;;;;;5053223;28;20127;-54
2024/02/03 11:12:22;;;;;;;12.13;5.63;;;10.50;99.90;;;;;;5053784;28;20041;-53
2024/02/03 11:14:48;;;;;;;12.90;5.93;;;10.50;99.90;;;;;;5053219;28;20072;-53
2024/02/03 11:17:14;;;;;;;10.73;5.57;;;10.60;99.90;;;;;;5053255;28;20065;-52
2024/02/03 11:19:42;;;;;;;14.57;6.10;;;10.50;99.90;;;;;;5051854;28;20032;-54
2024/02/03 11:22:07;;;;;;;11.80;5.50;;;10.50;99.90;;;;;;5053233;28;20051;-53
2024/02/03 11:24:34;;;;;;;13.20;6.10;;;10.60;99.90;;;;;;5053057;28;20115;-54
2024/02/03 11:27:07;;;;;;;14.40;6.50;;;10.50;99.90;;;;;;5052516;28;20112;-53
2024/02/03 11:29:34;;;;;;;12.57;6.00;;;10.60;99.90;;;;;;5052847;28;20029;-51
2024/02/03 11:32:02;;;;;;;10.83;6.10;;;10.60;99.90;;;;;;5053126;28;20113;-54
2024/02/03 11:34:30;;;;;;;13.13;5.72;;;10.60;99.90;;;;;;5052996;28;20078;-52
2024/02/03 11:36:56;;;;;;;11.93;5.60;;;10.50;99.90;;;;;;5052666;28;20500;-54
2024/02/03 11:39:38;;;;;;;13.57;6.03;;;10.60;99.90;;;;;;5052918;28;20390;-52
2024/02/03 11:42:05;;;;;;;12.20;6.77;;;10.60;99.90;;;;;;5052899;28;20040;-54
2024/02/03 11:44:55;;;;;;;10.40;5.93;;;10.60;99.90;;;;;;5052571;28;20029;-52
2024/02/03 11:47:21;;;;;;;13.70;6.23;;;10.60;99.90;;;;;;5052481;28;20433;-54
2024/02/03 11:49:49;;;;;;;10.70;5.67;;;10.60;99.90;;;;;;5051303;28;20033;-55
2024/02/03 11:52:15;;;;;;;16.20;6.37;;;10.50;99.90;;;;;;5051159;28;20032;-53
2024/02/03 11:54:40;;;;;;;13.87;6.20;;;10.50;99.90;;;;;;5052296;28;20029;-50
2024/02/03 11:57:06;;;;;;;14.40;6.23;;;10.50;99.90;;;;;;5051261;28;20477;-50
2024/02/03 11:59:32;;;;;;;11.63;5.20;;;10.50;99.90;;;;;;5051189;28;20044;-53
2024/02/03 12:01:58;;;;;;;10.43;5.20;;;10.50;99.90;;;;;;5052588;28;20036;-53
2024/02/03 12:04:26;;;;;;;14.47;6.00;;;10.50;99.90;;;;;;5050954;28;20029;-52
2024/02/03 12:06:54;;;;;;;14.67;6.00;;;10.50;99.90;;;;;;5052242;28;20116;-54
2024/02/03 12:09:20;;;;;;;11.53;5.77;;;10.50;99.90;;;;;;5052637;28;20393;-53
2024/02/03 12:11:51;;;;;;;12.77;5.67;;;10.50;99.90;;;;;;5052625;28;20033;-53
2024/02/03 12:14:21;;;;;;;18.77;9.43;;;10.50;99.90;;;;;;5052639;28;20032;-50
2024/02/03 12:16:48;;;;;;;12.33;6.43;;;10.50;99.90;;;;;;5052550;28;20040;-53
2024/02/03 12:19:14;;;;;;;11.97;5.70;;;10.60;99.90;;;;;;5052531;28;20033;-50
2024/02/03 12:21:40;;;;;;;11.60;5.60;;;10.60;99.90;;;;;;5052717;28;20025;-53
2024/02/03 12:24:07;;;;;;;10.70;5.87;;;10.60;99.90;;;;;;5052400;28;20036;-50
2024/02/03 12:26:32;;;;;;;13.17;6.43;;;10.60;99.90;;;;;;5051671;28;20099;-53
2024/02/03 12:28:59;;;;;;;11.10;5.47;;;10.60;99.90;;;;;;5051485;28;20033;-52
2024/02/03 12:31:25;;;;;;;12.17;6.20;;;10.60;99.90;;;;;;5053410;28;20028;-53
2024/02/03 12:33:51;;;;;;;13.57;6.37;;;10.60;99.90;;;;;;5053124;28;20033;-54
2024/02/03 12:36:17;;;;;;;12.00;6.27;;;10.60;99.90;;;;;;5052970;28;20078;-54
2024/02/03 12:38:43;;;;;;;12.50;6.07;;;10.60;99.90;;;;;;5050802;28;20109;-51